createdAt,value
2018-09-13T00:01:43.420Z,8.50
2018-09-13T00:04:11.964Z,8.87
2018-09-13T00:06:40.489Z,9.97
2018-09-13T00:09:09.999Z,10.07
2018-09-13T00:11:38.922Z,8.93
2018-09-13T00:14:07.527Z,9.67
2018-09-13T00:16:42.700Z,9.87
2018-09-13T00:19:18.330Z,8.73
2018-09-13T00:21:53.946Z,9.10
2018-09-13T00:24:28.531Z,9.50
2018-09-13T00:27:02.741Z,10.40
2018-09-13T00:29:36.522Z,10.00
2018-09-13T00:32:05.264Z,9.03
2018-09-13T00:34:33.790Z,9.00
2018-09-13T00:37:02.526Z,9.50
2018-09-13T00:39:31.031Z,9.70
2018-09-13T00:41:59.565Z,9.60
2018-09-13T00:44:28.066Z,8.30
2018-09-13T00:46:56.612Z,9.97
2018-09-13T00:49:25.161Z,10.60
2018-09-13T00:51:53.773Z,9.93
2018-09-13T00:54:22.778Z,11.00
2018-09-13T00:56:51.320Z,10.93
2018-09-13T00:59:19.833Z,10.57
2018-09-13T01:01:48.364Z,11.17
2018-09-13T01:04:16.923Z,9.50
2018-09-13T01:06:45.489Z,10.50
2018-09-13T01:09:13.993Z,13.27
2018-09-13T01:11:42.566Z,11.67
2018-09-13T01:14:11.076Z,12.50
2018-09-13T01:16:39.645Z,12.40
2018-09-13T01:19:08.158Z,13.33
2018-09-13T01:21:36.720Z,13.47
2018-09-13T01:24:05.273Z,12.37
2018-09-13T01:26:33.824Z,12.40
2018-09-13T01:29:02.417Z,13.03
2018-09-13T01:31:30.932Z,12.47
2018-09-13T01:33:59.476Z,11.97
2018-09-13T01:36:27.991Z,12.03
2018-09-13T01:38:56.824Z,12.30
2018-09-13T01:41:25.405Z,11.80
2018-09-13T01:43:53.991Z,11.63
2018-09-13T01:46:22.538Z,12.00
2018-09-13T01:48:51.092Z,13.63
2018-09-13T01:51:19.609Z,13.33
2018-09-13T01:53:48.159Z,13.33
2018-09-13T01:56:16.673Z,14.67
2018-09-13T01:58:45.229Z,14.23
2018-09-13T02:01:13.732Z,14.03
2018-09-13T02:03:42.297Z,13.10
2018-09-13T02:06:10.849Z,13.00
2018-09-13T02:08:39.397Z,13.97
2018-09-13T02:11:07.912Z,13.63
2018-09-13T02:13:36.461Z,12.90
2018-09-13T02:16:04.997Z,13.30
2018-09-13T02:18:33.604Z,13.40
2018-09-13T02:21:02.128Z,12.87
2018-09-13T02:23:30.682Z,15.73
2018-09-13T02:25:59.193Z,16.83
2018-09-13T02:28:27.752Z,16.53
2018-09-13T02:30:56.277Z,17.37
2018-09-13T02:33:24.875Z,16.90
2018-09-13T02:35:53.437Z,19.17
2018-09-13T02:38:21.981Z,18.83
2018-09-13T02:40:50.598Z,18.33
2018-09-13T02:43:19.140Z,15.37
2018-09-13T02:45:47.654Z,17.03
2018-09-13T02:48:16.213Z,15.53
2018-09-13T02:50:44.733Z,16.43
2018-09-13T02:53:13.285Z,18.73
2018-09-13T02:55:41.792Z,15.63
2018-09-13T02:58:10.358Z,16.20
2018-09-13T03:00:38.911Z,17.47
2018-09-13T03:03:07.460Z,19.57
2018-09-13T03:05:36.009Z,16.27
2018-09-13T03:08:04.582Z,18.60
2018-09-13T03:10:33.106Z,17.53
2018-09-13T03:13:01.661Z,17.23
2018-09-13T03:15:30.191Z,17.70
2018-09-13T03:17:58.771Z,17.97
2018-09-13T03:20:27.376Z,18.40
2018-09-13T03:22:55.954Z,18.70
2018-09-13T03:25:24.509Z,18.97
2018-09-13T03:27:53.185Z,19.17
2018-09-13T03:30:21.796Z,17.10
2018-09-13T03:32:50.444Z,17.03
2018-09-13T03:35:19.252Z,17.20
2018-09-13T03:37:47.772Z,17.60
2018-09-13T03:40:16.338Z,18.30
2018-09-13T03:42:44.852Z,17.57
2018-09-13T03:45:13.440Z,17.03
2018-09-13T03:47:42.028Z,15.70
2018-09-13T03:50:10.628Z,17.47
2018-09-13T03:52:39.144Z,18.27
2018-09-13T03:55:07.733Z,19.87
2018-09-13T03:57:36.447Z,18.30
2018-09-13T04:00:05.154Z,18.77
2018-09-13T04:02:33.676Z,20.73
2018-09-13T04:05:02.272Z,19.67
2018-09-13T04:07:30.795Z,22.43
2018-09-13T04:09:59.349Z,19.20
2018-09-13T04:12:27.875Z,18.03
2018-09-13T04:14:56.438Z,20.00
2018-09-13T04:17:24.987Z,18.33
2018-09-13T04:19:53.630Z,18.77
2018-09-13T04:22:22.165Z,17.63
2018-09-13T04:24:50.717Z,18.30
2018-09-13T04:27:19.236Z,18.47
2018-09-13T04:29:47.784Z,18.20
2018-09-13T04:32:16.293Z,17.40
2018-09-13T04:34:44.841Z,16.57
2018-09-13T04:37:13.362Z,17.67
2018-09-13T04:39:41.909Z,18.30
2018-09-13T04:42:10.432Z,19.30
2018-09-13T04:44:38.979Z,20.47
2018-09-13T04:47:07.496Z,19.97
2018-09-13T04:49:36.057Z,20.47
2018-09-13T04:52:06.045Z,21.77
2018-09-13T04:54:35.090Z,22.40
2018-09-13T04:57:03.741Z,21.93
2018-09-13T04:59:34.463Z,22.43
2018-09-13T05:02:03.117Z,21.90
2018-09-13T05:04:31.713Z,22.23
2018-09-13T05:07:00.333Z,22.67
2018-09-13T05:09:33.417Z,24.73
2018-09-13T05:12:01.940Z,23.00
2018-09-13T05:14:38.382Z,23.87
2018-09-13T05:17:07.256Z,23.93
2018-09-13T05:19:35.825Z,22.13
2018-09-13T05:22:04.350Z,21.77
2018-09-13T05:24:33.425Z,21.80
2018-09-13T05:27:03.914Z,22.70
2018-09-13T05:29:32.925Z,20.63
2018-09-13T05:32:01.485Z,20.43
2018-09-13T05:34:30.014Z,21.63
2018-09-13T05:36:58.556Z,22.73
2018-09-13T05:39:27.350Z,21.33
2018-09-13T05:41:56.622Z,23.23
2018-09-13T05:44:25.195Z,22.33
2018-09-13T05:46:53.748Z,23.67
2018-09-13T05:49:22.260Z,23.30
2018-09-13T05:51:50.821Z,25.40
2018-09-13T05:54:19.349Z,25.33
2018-09-13T05:56:47.916Z,22.43
2018-09-13T05:59:16.431Z,24.57
2018-09-13T06:01:44.993Z,23.37
2018-09-13T06:04:13.540Z,23.13
2018-09-13T06:06:42.945Z,66.17
2018-09-13T06:09:11.454Z,37.53
2018-09-13T06:11:40.008Z,24.47
2018-09-13T06:14:08.529Z,23.20
2018-09-13T06:16:37.406Z,24.47
2018-09-13T06:19:05.985Z,23.77
2018-09-13T06:21:34.534Z,23.80
2018-09-13T06:24:03.065Z,25.03
2018-09-13T06:26:31.619Z,25.57
2018-09-13T06:29:00.164Z,24.77
2018-09-13T06:31:28.786Z,22.83
2018-09-13T06:33:57.328Z,20.17
2018-09-13T06:36:25.903Z,21.73
2018-09-13T06:38:54.450Z,21.23
2018-09-13T06:41:23.014Z,21.33
2018-09-13T06:43:51.581Z,21.87
2018-09-13T06:46:20.159Z,22.00
2018-09-13T06:48:48.732Z,21.83
2018-09-13T06:51:17.288Z,21.00
2018-09-13T06:53:45.795Z,21.20
2018-09-13T06:56:14.352Z,21.83
2018-09-13T06:58:42.876Z,22.57
2018-09-13T07:01:11.497Z,20.80
2018-09-13T07:03:40.075Z,21.50
2018-09-13T07:06:08.701Z,21.53
2018-09-13T07:08:37.243Z,20.37
2018-09-13T07:11:05.926Z,20.60
2018-09-13T07:13:34.476Z,20.00
2018-09-13T07:16:03.032Z,20.00
2018-09-13T07:18:31.557Z,20.43
2018-09-13T07:21:00.126Z,20.27
2018-09-13T07:23:28.723Z,20.20
2018-09-13T07:25:57.257Z,21.07
2018-09-13T07:28:25.849Z,21.30
2018-09-13T07:30:54.418Z,20.47
2018-09-13T07:33:22.958Z,20.90
2018-09-13T07:35:51.477Z,20.13
2018-09-13T07:38:20.038Z,19.20
2018-09-13T07:40:48.573Z,19.80
2018-09-13T07:43:17.215Z,19.40
2018-09-13T07:45:45.785Z,20.47
2018-09-13T07:48:14.333Z,20.30
2018-09-13T07:50:42.845Z,19.80
2018-09-13T07:53:11.430Z,18.57
2018-09-13T07:55:40.015Z,21.50
2018-09-13T07:58:08.652Z,20.07
2018-09-13T08:00:37.220Z,20.10
2018-09-13T08:03:06.052Z,20.27
2018-09-13T08:05:34.618Z,20.90
2018-09-13T08:08:03.177Z,21.20
2018-09-13T08:10:31.701Z,21.07
2018-09-13T08:13:00.366Z,19.37
2018-09-13T08:15:28.893Z,20.90
2018-09-13T08:17:57.432Z,20.23
2018-09-13T08:20:25.957Z,21.77
2018-09-13T08:22:54.848Z,21.97
2018-09-13T08:25:23.357Z,21.27
2018-09-13T08:27:51.904Z,20.97
2018-09-13T08:30:20.441Z,20.43
2018-09-13T08:32:49.006Z,22.20
2018-09-13T08:35:17.516Z,20.67
2018-09-13T08:37:46.061Z,20.90
2018-09-13T08:40:14.592Z,20.87
2018-09-13T08:42:43.144Z,22.57
2018-09-13T08:45:11.672Z,21.60
2018-09-13T08:47:40.355Z,21.47
2018-09-13T08:50:08.841Z,21.73
2018-09-13T08:52:37.401Z,21.50
2018-09-13T08:55:09.306Z,19.77
2018-09-13T08:57:38.145Z,21.60
2018-09-13T09:00:08.881Z,21.10
2018-09-13T09:02:37.445Z,20.27
2018-09-13T09:05:06.321Z,20.23
2018-09-13T09:07:35.373Z,20.47
2018-09-13T09:10:06.924Z,19.80
2018-09-13T09:12:35.534Z,20.20
2018-09-13T09:15:04.160Z,20.17
2018-09-13T09:17:32.740Z,21.40
2018-09-13T09:20:01.286Z,20.50
2018-09-13T09:22:29.811Z,20.67
2018-09-13T09:24:58.379Z,20.73
2018-09-13T09:27:27.525Z,19.10
2018-09-13T09:29:56.211Z,19.07
2018-09-13T09:32:25.092Z,19.37
2018-09-13T09:34:53.719Z,20.63
2018-09-13T09:37:22.234Z,19.40
2018-09-13T09:39:50.829Z,21.57
2018-09-13T09:42:19.325Z,18.37
2018-09-13T09:44:47.873Z,21.37
2018-09-13T09:47:16.417Z,22.37
2018-09-13T09:49:44.972Z,21.23
2018-09-13T09:52:13.557Z,18.87
2018-09-13T09:54:42.068Z,19.17
2018-09-13T09:57:10.635Z,18.67
2018-09-13T09:59:39.152Z,18.33
2018-09-13T10:02:12.690Z,19.07
2018-09-13T10:04:41.340Z,18.33
2018-09-13T10:07:09.829Z,18.50
2018-09-13T10:09:38.467Z,18.00
2018-09-13T10:12:06.961Z,18.87
2018-09-13T10:14:35.512Z,19.97
2018-09-13T10:17:09.350Z,20.10
2018-09-13T10:19:42.901Z,18.77
2018-09-13T10:22:16.756Z,17.73
2018-09-13T10:24:50.500Z,19.80
2018-09-13T10:27:24.479Z,18.30
2018-09-13T10:29:58.236Z,19.83
2018-09-13T10:32:31.931Z,19.67
2018-09-13T10:35:05.723Z,18.67
2018-09-13T10:37:40.385Z,20.07
2018-09-13T10:40:14.389Z,20.17
2018-09-13T10:42:48.037Z,21.03
2018-09-13T10:45:21.917Z,19.87
2018-09-13T10:47:56.924Z,20.50
2018-09-13T10:50:25.042Z,17.87
2018-09-13T10:53:04.863Z,18.20
2018-09-13T10:55:33.486Z,16.97
2018-09-13T10:58:02.025Z,16.90
2018-09-13T11:00:30.690Z,15.80
2018-09-13T11:02:59.825Z,17.27
2018-09-13T11:05:28.458Z,16.73
2018-09-13T11:07:57.033Z,18.10
2018-09-13T11:10:25.807Z,18.40
2018-09-13T11:12:59.441Z,16.07
2018-09-13T11:15:35.989Z,15.90
2018-09-13T11:18:05.953Z,15.17
2018-09-13T11:20:34.765Z,16.17
2018-09-13T11:23:03.288Z,16.53
2018-09-13T11:25:31.847Z,15.50
2018-09-13T11:28:00.370Z,16.07
2018-09-13T11:30:28.977Z,16.07
2018-09-13T11:32:57.773Z,16.93
2018-09-13T11:35:36.933Z,17.40
2018-09-13T11:38:05.649Z,17.20
2018-09-13T11:40:34.759Z,16.83
2018-09-13T11:43:03.161Z,16.67
2018-09-13T11:45:31.704Z,16.07
2018-09-13T11:48:00.216Z,16.23
2018-09-13T11:50:28.911Z,17.47
2018-09-13T11:52:57.748Z,16.90
2018-09-13T11:55:26.629Z,17.43
2018-09-13T11:57:57.082Z,17.17
2018-09-13T12:00:25.834Z,17.43
2018-09-13T12:02:54.404Z,19.37
2018-09-13T12:05:22.961Z,18.53
2018-09-13T12:07:51.580Z,17.67
2018-09-13T12:10:20.098Z,16.77
2018-09-13T12:12:49.576Z,17.80
2018-09-13T12:15:18.105Z,15.77
2018-09-13T12:17:46.695Z,16.60
2018-09-13T12:20:15.192Z,16.97
2018-09-13T12:22:43.735Z,18.20
2018-09-13T12:25:13.386Z,22.47
2018-09-13T12:27:43.840Z,23.37
2018-09-13T12:30:13.240Z,24.43
2018-09-13T12:32:44.473Z,22.57
2018-09-13T12:35:16.424Z,23.97
2018-09-13T12:37:49.433Z,25.43
2018-09-13T12:40:23.842Z,26.67
2018-09-13T12:42:56.208Z,26.53
2018-09-13T12:45:29.413Z,28.63
2018-09-13T12:48:03.743Z,24.03
2018-09-13T12:50:34.296Z,20.43
2018-09-13T12:53:06.692Z,22.43
2018-09-13T12:55:43.811Z,20.70
2018-09-13T12:58:14.069Z,20.97
2018-09-13T13:00:48.700Z,22.07
2018-09-13T13:03:22.233Z,22.33
2018-09-13T13:05:52.784Z,22.33
2018-09-13T13:08:22.942Z,23.43
2018-09-13T13:10:53.334Z,24.83
2018-09-13T13:13:30.282Z,24.53
2018-09-13T13:16:05.474Z,24.27
2018-09-13T13:18:37.817Z,25.97
2018-09-13T13:21:11.142Z,25.63
2018-09-13T13:23:44.099Z,26.83
2018-09-13T13:26:14.186Z,27.60
2018-09-13T13:28:42.774Z,28.80
2018-09-13T13:31:16.093Z,29.83
2018-09-13T13:33:51.318Z,30.77
2018-09-13T13:36:22.915Z,31.70
2018-09-13T13:38:55.208Z,30.20
2018-09-13T13:41:30.277Z,32.03
2018-09-13T13:44:02.156Z,32.13
2018-09-13T13:46:35.353Z,32.83
2018-09-13T13:49:05.049Z,33.03
2018-09-13T13:51:40.077Z,32.30
2018-09-13T13:54:14.337Z,33.20
2018-09-13T13:56:46.218Z,33.90
2018-09-13T13:59:16.532Z,33.57
2018-09-13T14:01:47.497Z,33.37
2018-09-13T14:04:20.448Z,34.70
2018-09-13T14:06:53.971Z,35.60
2018-09-13T14:09:27.792Z,33.73
2018-09-13T14:11:57.928Z,37.50
2018-09-13T14:14:29.647Z,34.77
2018-09-13T14:17:00.855Z,34.57
2018-09-13T14:19:32.885Z,33.90
2018-09-13T14:22:09.882Z,34.67
2018-09-13T14:24:47.006Z,34.23
2018-09-13T14:27:15.652Z,34.10
2018-09-13T14:29:48.672Z,33.97
2018-09-13T14:32:22.665Z,33.83
2018-09-13T14:34:55.474Z,34.47
2018-09-13T14:37:29.697Z,35.10
2018-09-13T14:40:02.900Z,29.57
2018-09-13T14:42:34.593Z,27.37
2018-09-13T14:45:04.519Z,25.87
2018-09-13T14:47:35.987Z,27.30
2018-09-13T14:50:10.952Z,25.23
2018-09-13T14:52:41.208Z,24.57
2018-09-13T14:55:11.193Z,24.57
2018-09-13T14:57:39.808Z,25.17
2018-09-13T15:00:12.786Z,24.77
2018-09-13T15:02:44.992Z,23.57
2018-09-13T15:05:18.775Z,23.57
2018-09-13T15:07:50.439Z,22.37
2018-09-13T15:10:21.621Z,21.80
2018-09-13T15:12:54.315Z,22.07
2018-09-13T15:15:26.896Z,21.93
2018-09-13T15:17:57.316Z,22.67
2018-09-13T15:20:29.108Z,21.57
2018-09-13T15:23:03.440Z,24.20
2018-09-13T15:25:32.151Z,24.13
2018-09-13T15:28:00.738Z,20.90
2018-09-13T15:30:29.293Z,21.93
2018-09-13T15:34:01.038Z,21.10
2018-09-13T15:36:33.802Z,20.07
2018-09-13T15:39:10.748Z,21.27
2018-09-13T15:41:40.927Z,20.33
2018-09-13T15:44:12.423Z,20.87
2018-09-13T15:46:41.673Z,19.57
2018-09-13T15:49:15.206Z,20.77
2018-09-13T15:51:50.260Z,21.07
2018-09-13T15:54:20.953Z,19.93
2018-09-13T15:56:49.787Z,19.80
2018-09-13T15:59:18.849Z,20.07
2018-09-13T16:01:47.548Z,19.53
2018-09-13T16:04:19.310Z,18.17
2018-09-13T16:06:48.588Z,19.77
2018-09-13T16:09:19.285Z,20.07
2018-09-13T16:11:49.548Z,18.43
2018-09-13T16:14:18.066Z,17.70
2018-09-13T16:16:46.706Z,18.00
2018-09-13T16:19:20.346Z,17.87
2018-09-13T16:21:50.620Z,17.40
2018-09-13T16:24:26.704Z,18.00
2018-09-13T16:26:55.921Z,17.73
2018-09-13T16:29:27.437Z,18.60
2018-09-13T16:32:00.583Z,17.73
2018-09-13T16:34:29.517Z,18.60
2018-09-13T16:37:11.205Z,18.43
2018-09-13T16:39:44.864Z,17.90
2018-09-13T16:42:18.720Z,18.50
2018-09-13T16:44:53.740Z,17.90
2018-09-13T16:47:29.268Z,17.73
2018-09-13T16:49:58.744Z,18.00
2018-09-13T16:52:28.040Z,17.87
2018-09-13T16:55:02.988Z,17.17
2018-09-13T16:57:31.528Z,17.60
2018-09-13T17:00:00.048Z,18.70
2018-09-13T17:02:28.608Z,18.47
2018-09-13T17:04:57.924Z,18.40
2018-09-13T17:07:26.567Z,19.37
2018-09-13T17:09:55.092Z,17.77
2018-09-13T17:12:24.485Z,16.93
2018-09-13T17:14:53.082Z,17.70
2018-09-13T17:17:21.636Z,16.90
2018-09-13T17:19:50.236Z,16.83
2018-09-13T17:22:18.784Z,15.33
2018-09-13T17:24:47.409Z,17.00
2018-09-13T17:27:16.036Z,16.47
2018-09-13T17:29:51.128Z,16.13
2018-09-13T17:32:20.116Z,16.13
2018-09-13T17:34:48.707Z,14.23
2018-09-13T17:37:17.251Z,15.97
2018-09-13T17:39:46.053Z,13.87
2018-09-13T17:42:14.740Z,13.63
2018-09-13T17:44:43.308Z,12.83
2018-09-13T17:47:11.828Z,13.17
2018-09-13T17:49:40.381Z,12.53
2018-09-13T17:52:09.053Z,11.80
2018-09-13T17:54:37.608Z,12.27
2018-09-13T17:57:06.289Z,11.93
2018-09-13T17:59:34.844Z,11.57
2018-09-13T18:02:03.364Z,10.60
2018-09-13T18:04:31.945Z,10.63
2018-09-13T18:07:00.510Z,11.07
2018-09-13T18:09:29.077Z,10.70
2018-09-13T18:11:57.877Z,10.73
2018-09-13T18:14:26.412Z,9.83
2018-09-13T18:16:54.917Z,10.17
2018-09-13T18:19:26.220Z,10.43
2018-09-13T18:21:54.784Z,10.37
2018-09-13T18:24:23.325Z,9.73
2018-09-13T18:26:51.848Z,9.07
2018-09-13T18:29:20.406Z,9.27
2018-09-13T18:31:50.486Z,9.10
2018-09-13T18:34:19.024Z,9.33
2018-09-13T18:36:47.541Z,9.30
2018-09-13T18:39:16.091Z,10.77
2018-09-13T18:41:44.600Z,10.40
2018-09-13T18:44:13.140Z,9.97
2018-09-13T18:46:41.660Z,10.37
2018-09-13T18:49:10.203Z,10.93
2018-09-13T18:51:38.732Z,10.77
2018-09-13T18:54:07.292Z,10.20
2018-09-13T18:56:35.840Z,9.87
2018-09-13T18:59:04.657Z,11.17
2018-09-13T19:01:33.321Z,10.00
2018-09-13T19:04:01.872Z,11.33
2018-09-13T19:06:30.420Z,10.73
2018-09-13T19:08:58.967Z,10.63
2018-09-13T19:11:27.745Z,10.57
2018-09-13T19:13:56.301Z,10.43
2018-09-13T19:16:25.276Z,11.83
2018-09-13T19:18:58.833Z,11.13
2018-09-13T19:21:28.606Z,12.43
2018-09-13T19:23:58.537Z,13.17
2018-09-13T19:26:27.808Z,12.63
2018-09-13T19:28:56.317Z,12.97
2018-09-13T19:31:24.877Z,13.10
2018-09-13T19:33:54.914Z,14.10
2018-09-13T19:36:26.474Z,15.73
2018-09-13T19:38:55.751Z,17.13
2018-09-13T19:41:25.065Z,17.07
2018-09-13T19:43:54.771Z,17.77
2018-09-13T19:46:24.125Z,25.37
2018-09-13T19:48:54.169Z,22.30
2018-09-13T19:51:22.804Z,19.60
2018-09-13T19:53:56.031Z,20.13
2018-09-13T19:56:36.289Z,20.20
2018-09-13T19:59:08.296Z,19.67
2018-09-13T20:01:41.556Z,21.07
2018-09-13T20:04:10.612Z,22.27
2018-09-13T20:06:42.501Z,22.00
2018-09-13T20:09:12.500Z,21.67
2018-09-13T20:11:44.636Z,22.70
2018-09-13T20:14:22.184Z,22.00
2018-09-13T20:16:50.919Z,22.37
2018-09-13T20:19:20.493Z,23.90
2018-09-13T20:21:49.940Z,22.87
2018-09-13T20:24:25.759Z,23.20
2018-09-13T20:26:55.069Z,23.10
2018-09-13T20:29:24.821Z,23.13
2018-09-13T20:32:05.334Z,23.00
2018-09-13T20:34:40.096Z,22.73
2018-09-13T20:37:16.551Z,22.80
2018-09-13T20:39:47.544Z,23.87
2018-09-13T20:42:16.291Z,23.20
2018-09-13T20:44:49.620Z,25.03
2018-09-13T20:47:20.423Z,24.67
2018-09-13T20:49:50.929Z,25.23
2018-09-13T20:52:19.588Z,27.10
2018-09-13T20:54:53.574Z,25.17
2018-09-13T20:57:27.934Z,26.77
2018-09-13T21:00:02.681Z,25.73
2018-09-13T21:02:34.492Z,24.97
2018-09-13T21:05:03.916Z,25.93
2018-09-13T21:07:33.572Z,27.07
2018-09-13T21:10:10.475Z,27.03
2018-09-13T21:12:41.834Z,26.83
2018-09-13T21:15:14.161Z,29.57
2018-09-13T21:17:43.620Z,29.17
2018-09-13T21:20:16.232Z,29.10
2018-09-13T21:22:46.279Z,30.20
2018-09-13T21:25:17.757Z,27.87
2018-09-13T21:27:46.372Z,30.07
2018-09-13T21:30:14.907Z,29.93
2018-09-13T21:32:45.567Z,30.77
2018-09-13T21:35:15.597Z,29.70
2018-09-13T21:37:46.035Z,30.23
2018-09-13T21:40:19.627Z,28.63
2018-09-13T21:42:51.242Z,31.03
2018-09-13T21:45:22.408Z,29.23
2018-09-13T21:47:51.699Z,29.40
2018-09-13T21:50:23.957Z,29.17
2018-09-13T21:52:55.375Z,29.13
2018-09-13T21:55:28.037Z,28.50
2018-09-13T21:57:58.625Z,28.47
2018-09-13T22:00:29.447Z,28.60
2018-09-13T22:03:01.528Z,27.53
2018-09-13T22:05:31.208Z,27.83
2018-09-13T22:08:01.546Z,28.17
2018-09-13T22:10:33.756Z,27.27
2018-09-13T22:13:06.438Z,27.53
2018-09-13T22:15:38.032Z,27.87
2018-09-13T22:18:11.206Z,29.07
2018-09-13T22:20:45.637Z,26.50
2018-09-13T22:23:17.649Z,26.17
2018-09-13T22:25:46.882Z,27.93
2018-09-13T22:28:15.689Z,26.97
2018-09-13T22:30:47.900Z,27.13
2018-09-13T22:33:22.216Z,27.80
2018-09-13T22:35:55.444Z,29.33
2018-09-13T22:38:26.471Z,30.23
2018-09-13T22:40:55.947Z,27.67
2018-09-13T22:43:34.690Z,27.43
2018-09-13T22:46:05.944Z,28.60
2018-09-13T22:48:40.337Z,28.50
2018-09-13T22:51:13.359Z,26.93
2018-09-13T22:53:47.201Z,25.73
2018-09-13T22:56:17.677Z,27.80
2018-09-13T22:58:50.195Z,27.97
2018-09-13T23:01:21.124Z,29.27
2018-09-13T23:03:53.594Z,27.40
2018-09-13T23:06:22.947Z,26.97
2018-09-13T23:08:54.451Z,26.90
2018-09-13T23:11:24.748Z,27.87
2018-09-13T23:13:55.421Z,25.83
2018-09-13T23:16:27.790Z,26.80
2018-09-13T23:18:57.673Z,25.97
2018-09-13T23:21:26.835Z,26.50
2018-09-13T23:23:55.423Z,27.90
2018-09-13T23:26:25.339Z,27.47
2018-09-13T23:28:54.629Z,26.27
2018-09-13T23:31:23.152Z,26.50
2018-09-13T23:33:51.706Z,26.50
2018-09-13T23:36:26.850Z,27.00
2018-09-13T23:38:55.467Z,25.87
2018-09-13T23:41:23.988Z,25.47
2018-09-13T23:43:53.644Z,25.00
2018-09-13T23:46:22.179Z,24.37
2018-09-13T23:48:50.725Z,24.80
2018-09-13T23:51:19.240Z,24.93
2018-09-13T23:53:47.825Z,25.47
2018-09-13T23:56:16.375Z,24.47
2018-09-13T23:58:44.936Z,24.10
